sensor_id;sensor_type;location;lat;lon;timestamp;temperature;humidity
22674;DHT22;11504;43.334;21.918;2023-11-21T00:02:28;8.1;100.0
22674;DHT22;11504;43.334;21.918;2023-11-21T00:07:04;8.2;100.0
22674;DHT22;11504;43.334;21.918;2023-11-21T00:11:41;8.2;100.0
22674;DHT22;11504;43.334;21.918;2023-11-21T00:16:17;8.1;100.0
22674;DHT22;11504;43.334;21.918;2023-11-21T00:20:53;8.1;100.0
22674;DHT22;11504;43.334;21.918;2023-11-21T00:25:29;8.0;100.0
22674;DHT22;11504;43.334;21.918;2023-11-21T00:30:06;8.0;100.0
22674;DHT22;11504;43.334;21.918;2023-11-21T00:34:45;7.9;100.0
22674;DHT22;11504;43.334;21.918;2023-11-21T00:39:22;7.9;100.0
22674;DHT22;11504;43.334;21.918;2023-11-21T00:43:58;7.8;100.0
22674;DHT22;11504;43.334;21.918;2023-11-21T00:48:34;7.8;100.0
22674;DHT22;11504;43.334;21.918;2023-11-21T00:53:10;7.8;100.0
22674;DHT22;11504;43.334;21.918;2023-11-21T00:57:47;7.8;100.0
22674;DHT22;11504;43.334;21.918;2023-11-21T01:02:24;7.8;100.0
22674;DHT22;11504;43.334;21.918;2023-11-21T01:07:00;7.8;100.0
22674;DHT22;11504;43.334;21.918;2023-11-21T01:11:37;7.8;100.0
22674;DHT22;11504;43.334;21.918;2023-11-21T01:16:13;7.8;100.0
22674;DHT22;11504;43.334;21.918;2023-11-21T01:20:50;7.8;100.0
22674;DHT22;11504;43.334;21.918;2023-11-21T01:25:26;7.8;100.0
22674;DHT22;11504;43.334;21.918;2023-11-21T01:30:04;7.8;100.0
22674;DHT22;11504;43.334;21.918;2023-11-21T01:34:45;7.8;100.0
22674;DHT22;11504;43.334;21.918;2023-11-21T01:39:26;7.8;100.0
22674;DHT22;11504;43.334;21.918;2023-11-21T01:44:04;7.8;100.0
22674;DHT22;11504;43.334;21.918;2023-11-21T01:48:41;7.8;100.0
22674;DHT22;11504;43.334;21.918;2023-11-21T01:53:17;7.8;100.0
22674;DHT22;11504;43.334;21.918;2023-11-21T01:57:54;7.8;100.0
22674;DHT22;11504;43.334;21.918;2023-11-21T02:02:33;7.8;100.0
22674;DHT22;11504;43.334;21.918;2023-11-21T02:07:09;7.7;100.0
22674;DHT22;11504;43.334;21.918;2023-11-21T02:11:46;7.7;100.0
22674;DHT22;11504;43.334;21.918;2023-11-21T02:16:22;7.6;100.0
22674;DHT22;11504;43.334;21.918;2023-11-21T02:20:59;7.6;100.0
22674;DHT22;11504;43.334;21.918;2023-11-21T02:25:35;7.6;100.0
22674;DHT22;11504;43.334;21.918;2023-11-21T02:30:12;7.6;100.0
22674;DHT22;11504;43.334;21.918;2023-11-21T02:34:51;7.5;100.0
22674;DHT22;11504;43.334;21.918;2023-11-21T02:39:28;7.5;100.0
22674;DHT22;11504;43.334;21.918;2023-11-21T02:44:04;7.4;100.0
22674;DHT22;11504;43.334;21.918;2023-11-21T02:48:42;7.4;100.0
22674;DHT22;11504;43.334;21.918;2023-11-21T02:53:18;7.4;100.0
22674;DHT22;11504;43.334;21.918;2023-11-21T02:57:55;7.4;100.0
22674;DHT22;11504;43.334;21.918;2023-11-21T03:02:31;7.4;100.0
22674;DHT22;11504;43.334;21.918;2023-11-21T03:07:07;7.5;100.0
22674;DHT22;11504;43.334;21.918;2023-11-21T03:11:43;7.5;100.0
22674;DHT22;11504;43.334;21.918;2023-11-21T03:16:19;7.4;100.0
22674;DHT22;11504;43.334;21.918;2023-11-21T03:20:55;7.4;100.0
22674;DHT22;11504;43.334;21.918;2023-11-21T03:25:31;7.4;100.0
22674;DHT22;11504;43.334;21.918;2023-11-21T03:30:09;7.4;100.0
22674;DHT22;11504;43.334;21.918;2023-11-21T03:34:56;7.5;100.0
22674;DHT22;11504;43.334;21.918;2023-11-21T03:39:34;7.5;100.0
22674;DHT22;11504;43.334;21.918;2023-11-21T03:44:11;7.6;100.0
22674;DHT22;11504;43.334;21.918;2023-11-21T03:48:47;7.6;100.0
22674;DHT22;11504;43.334;21.918;2023-11-21T03:53:23;7.6;100.0
22674;DHT22;11504;43.334;21.918;2023-11-21T03:58:00;7.6;100.0
22674;DHT22;11504;43.334;21.918;2023-11-21T04:02:36;7.6;100.0
22674;DHT22;11504;43.334;21.918;2023-11-21T04:07:12;7.6;100.0
22674;DHT22;11504;43.334;21.918;2023-11-21T04:11:49;7.6;100.0
22674;DHT22;11504;43.334;21.918;2023-11-21T04:16:25;7.6;100.0
22674;DHT22;11504;43.334;21.918;2023-11-21T04:21:02;7.6;100.0
22674;DHT22;11504;43.334;21.918;2023-11-21T04:25:42;7.5;100.0
22674;DHT22;11504;43.334;21.918;2023-11-21T04:30:19;7.5;100.0
22674;DHT22;11504;43.334;21.918;2023-11-21T04:34:55;7.5;100.0
22674;DHT22;11504;43.334;21.918;2023-11-21T04:39:32;7.5;100.0
22674;DHT22;11504;43.334;21.918;2023-11-21T04:44:08;7.5;100.0
22674;DHT22;11504;43.334;21.918;2023-11-21T04:48:44;7.5;100.0
22674;DHT22;11504;43.334;21.918;2023-11-21T04:53:21;7.4;100.0
22674;DHT22;11504;43.334;21.918;2023-11-21T04:57:58;7.4;100.0
22674;DHT22;11504;43.334;21.918;2023-11-21T05:02:34;7.4;100.0
22674;DHT22;11504;43.334;21.918;2023-11-21T05:07:11;7.4;100.0
22674;DHT22;11504;43.334;21.918;2023-11-21T05:11:47;7.4;100.0
22674;DHT22;11504;43.334;21.918;2023-11-21T05:16:25;7.4;100.0
22674;DHT22;11504;43.334;21.918;2023-11-21T05:21:02;7.4;100.0
22674;DHT22;11504;43.334;21.918;2023-11-21T05:25:40;7.3;100.0
22674;DHT22;11504;43.334;21.918;2023-11-21T05:30:16;7.3;100.0
22674;DHT22;11504;43.334;21.918;2023-11-21T05:34:53;7.3;100.0
22674;DHT22;11504;43.334;21.918;2023-11-21T05:39:29;7.3;100.0
22674;DHT22;11504;43.334;21.918;2023-11-21T05:44:05;7.3;100.0
22674;DHT22;11504;43.334;21.918;2023-11-21T05:48:41;7.3;100.0
22674;DHT22;11504;43.334;21.918;2023-11-21T05:53:17;7.4;100.0
22674;DHT22;11504;43.334;21.918;2023-11-21T05:57:54;7.4;100.0
22674;DHT22;11504;43.334;21.918;2023-11-21T06:02:30;7.4;100.0
22674;DHT22;11504;43.334;21.918;2023-11-21T06:07:06;7.4;100.0
22674;DHT22;11504;43.334;21.918;2023-11-21T06:11:42;7.4;100.0
22674;DHT22;11504;43.334;21.918;2023-11-21T06:16:19;7.6;100.0
22674;DHT22;11504;43.334;21.918;2023-11-21T06:20:55;7.6;100.0
22674;DHT22;11504;43.334;21.918;2023-11-21T06:25:32;7.8;100.0
22674;DHT22;11504;43.334;21.918;2023-11-21T06:30:09;7.8;100.0
22674;DHT22;11504;43.334;21.918;2023-11-21T06:34:51;8.1;100.0
22674;DHT22;11504;43.334;21.918;2023-11-21T06:39:27;8.1;100.0
22674;DHT22;11504;43.334;21.918;2023-11-21T06:44:04;8.4;100.0
22674;DHT22;11504;43.334;21.918;2023-11-21T06:48:42;8.4;100.0
22674;DHT22;11504;43.334;21.918;2023-11-21T06:53:19;8.6;100.0
22674;DHT22;11504;43.334;21.918;2023-11-21T06:57:55;8.6;100.0
22674;DHT22;11504;43.334;21.918;2023-11-21T07:02:32;8.6;100.0
22674;DHT22;11504;43.334;21.918;2023-11-21T07:07:08;8.8;100.0
22674;DHT22;11504;43.334;21.918;2023-11-21T07:11:44;8.8;100.0
22674;DHT22;11504;43.334;21.918;2023-11-21T07:16:20;9.1;100.0
22674;DHT22;11504;43.334;21.918;2023-11-21T07:20:56;9.1;100.0
22674;DHT22;11504;43.334;21.918;2023-11-21T07:25:32;9.4;100.0
22674;DHT22;11504;43.334;21.918;2023-11-21T07:30:09;9.4;100.0
22674;DHT22;11504;43.334;21.918;2023-11-21T07:34:49;9.8;100.0
22674;DHT22;11504;43.334;21.918;2023-11-21T07:39:25;9.8;100.0
22674;DHT22;11504;43.334;21.918;2023-11-21T07:44:01;10.1;100.0
22674;DHT22;11504;43.334;21.918;2023-11-21T07:48:38;10.1;100.0
22674;DHT22;11504;43.334;21.918;2023-11-21T07:53:18;10.6;100.0
22674;DHT22;11504;43.334;21.918;2023-11-21T07:57:54;10.6;100.0
22674;DHT22;11504;43.334;21.918;2023-11-21T08:02:30;10.6;100.0
22674;DHT22;11504;43.334;21.918;2023-11-21T08:07:06;11.1;100.0
22674;DHT22;11504;43.334;21.918;2023-11-21T08:11:43;11.1;100.0
22674;DHT22;11504;43.334;21.918;2023-11-21T08:16:19;11.3;100.0
22674;DHT22;11504;43.334;21.918;2023-11-21T08:20:56;11.3;100.0
22674;DHT22;11504;43.334;21.918;2023-11-21T08:25:32;11.5;100.0
22674;DHT22;11504;43.334;21.918;2023-11-21T08:30:10;11.5;100.0
22674;DHT22;11504;43.334;21.918;2023-11-21T08:34:48;11.6;100.0
22674;DHT22;11504;43.334;21.918;2023-11-21T08:39:24;11.6;100.0
22674;DHT22;11504;43.334;21.918;2023-11-21T08:44:01;11.7;100.0
22674;DHT22;11504;43.334;21.918;2023-11-21T08:48:37;11.7;100.0
22674;DHT22;11504;43.334;21.918;2023-11-21T08:53:13;12.0;100.0
22674;DHT22;11504;43.334;21.918;2023-11-21T08:57:50;12.0;100.0
22674;DHT22;11504;43.334;21.918;2023-11-21T09:02:26;12.0;100.0
22674;DHT22;11504;43.334;21.918;2023-11-21T09:07:03;12.2;100.0
22674;DHT22;11504;43.334;21.918;2023-11-21T09:11:39;12.2;100.0
22674;DHT22;11504;43.334;21.918;2023-11-21T09:16:16;12.4;100.0
22674;DHT22;11504;43.334;21.918;2023-11-21T09:20:53;12.4;100.0
22674;DHT22;11504;43.334;21.918;2023-11-21T09:25:29;12.6;100.0
22674;DHT22;11504;43.334;21.918;2023-11-21T09:30:07;12.6;100.0
22674;DHT22;11504;43.334;21.918;2023-11-21T09:34:47;12.8;100.0
22674;DHT22;11504;43.334;21.918;2023-11-21T09:39:25;12.8;100.0
22674;DHT22;11504;43.334;21.918;2023-11-21T09:44:02;12.9;100.0
22674;DHT22;11504;43.334;21.918;2023-11-21T09:48:52;12.9;100.0
22674;DHT22;11504;43.334;21.918;2023-11-21T09:53:35;13.0;100.0
22674;DHT22;11504;43.334;21.918;2023-11-21T09:58:13;13.0;100.0
22674;DHT22;11504;43.334;21.918;2023-11-21T10:02:52;13.0;100.0
22674;DHT22;11504;43.334;21.918;2023-11-21T10:07:34;13.0;100.0
22674;DHT22;11504;43.334;21.918;2023-11-21T10:12:15;13.0;100.0
22674;DHT22;11504;43.334;21.918;2023-11-21T10:16:53;13.0;100.0
22674;DHT22;11504;43.334;21.918;2023-11-21T10:21:34;13.0;100.0
22674;DHT22;11504;43.334;21.918;2023-11-21T10:26:11;13.0;100.0
22674;DHT22;11504;43.334;21.918;2023-11-21T10:30:50;13.0;100.0
22674;DHT22;11504;43.334;21.918;2023-11-21T10:35:38;12.8;100.0
22674;DHT22;11504;43.334;21.918;2023-11-21T10:40:22;12.8;100.0
22674;DHT22;11504;43.334;21.918;2023-11-21T10:44:59;12.7;100.0
22674;DHT22;11504;43.334;21.918;2023-11-21T10:49:36;12.7;100.0
22674;DHT22;11504;43.334;21.918;2023-11-21T10:54:17;12.8;100.0
22674;DHT22;11504;43.334;21.918;2023-11-21T10:58:57;12.8;100.0
22674;DHT22;11504;43.334;21.918;2023-11-21T11:03:35;12.8;100.0
22674;DHT22;11504;43.334;21.918;2023-11-21T11:08:15;12.8;100.0
22674;DHT22;11504;43.334;21.918;2023-11-21T11:12:57;12.8;100.0
22674;DHT22;11504;43.334;21.918;2023-11-21T11:17:36;13.1;100.0
22674;DHT22;11504;43.334;21.918;2023-11-21T11:22:27;13.1;100.0
22674;DHT22;11504;43.334;21.918;2023-11-21T11:27:32;13.4;100.0
22674;DHT22;11504;43.334;21.918;2023-11-21T11:32:43;13.4;100.0
22674;DHT22;11504;43.334;21.918;2023-11-21T11:38:11;13.2;100.0
22674;DHT22;11504;43.334;21.918;2023-11-21T11:43:03;13.2;100.0
22674;DHT22;11504;43.334;21.918;2023-11-21T11:47:43;13.0;100.0
22674;DHT22;11504;43.334;21.918;2023-11-21T11:52:39;13.0;100.0
22674;DHT22;11504;43.334;21.918;2023-11-21T11:57:23;13.1;100.0
22674;DHT22;11504;43.334;21.918;2023-11-21T12:02:04;13.1;100.0
22674;DHT22;11504;43.334;21.918;2023-11-21T12:06:41;13.2;100.0
22674;DHT22;11504;43.334;21.918;2023-11-21T12:11:19;13.2;100.0
22674;DHT22;11504;43.334;21.918;2023-11-21T12:15:55;13.2;100.0
22674;DHT22;11504;43.334;21.918;2023-11-21T12:20:32;13.2;100.0
22674;DHT22;11504;43.334;21.918;2023-11-21T12:25:09;13.2;100.0
22674;DHT22;11504;43.334;21.918;2023-11-21T12:29:46;13.2;100.0
22674;DHT22;11504;43.334;21.918;2023-11-21T12:34:22;13.1;100.0
22674;DHT22;11504;43.334;21.918;2023-11-21T12:38:59;13.1;100.0
22674;DHT22;11504;43.334;21.918;2023-11-21T12:43:36;13.0;100.0
22674;DHT22;11504;43.334;21.918;2023-11-21T12:48:14;13.0;100.0
22674;DHT22;11504;43.334;21.918;2023-11-21T12:52:51;13.0;100.0
22674;DHT22;11504;43.334;21.918;2023-11-21T12:57:28;12.8;100.0
22674;DHT22;11504;43.334;21.918;2023-11-21T13:02:05;12.8;100.0
22674;DHT22;11504;43.334;21.918;2023-11-21T13:06:41;12.5;100.0
22674;DHT22;11504;43.334;21.918;2023-11-21T13:11:18;12.5;100.0
22674;DHT22;11504;43.334;21.918;2023-11-21T13:15:56;12.3;100.0
22674;DHT22;11504;43.334;21.918;2023-11-21T13:20:40;12.3;100.0
22674;DHT22;11504;43.334;21.918;2023-11-21T13:25:18;12.1;100.0
22674;DHT22;11504;43.334;21.918;2023-11-21T13:29:56;12.1;100.0
22674;DHT22;11504;43.334;21.918;2023-11-21T13:34:33;11.8;100.0
22674;DHT22;11504;43.334;21.918;2023-11-21T13:39:09;11.8;100.0
22674;DHT22;11504;43.334;21.918;2023-11-21T13:43:45;11.6;100.0
22674;DHT22;11504;43.334;21.918;2023-11-21T13:48:21;11.6;100.0
22674;DHT22;11504;43.334;21.918;2023-11-21T13:52:58;11.6;100.0
22674;DHT22;11504;43.334;21.918;2023-11-21T13:57:35;11.4;100.0
22674;DHT22;11504;43.334;21.918;2023-11-21T14:02:11;11.4;100.0
22674;DHT22;11504;43.334;21.918;2023-11-21T14:06:48;11.1;100.0
22674;DHT22;11504;43.334;21.918;2023-11-21T14:11:27;11.1;100.0
22674;DHT22;11504;43.334;21.918;2023-11-21T14:16:04;11.0;100.0
22674;DHT22;11504;43.334;21.918;2023-11-21T14:20:42;11.0;100.0
22674;DHT22;11504;43.334;21.918;2023-11-21T14:25:19;10.9;100.0
22674;DHT22;11504;43.334;21.918;2023-11-21T14:29:56;10.9;100.0
22674;DHT22;11504;43.334;21.918;2023-11-21T14:34:32;10.9;100.0
22674;DHT22;11504;43.334;21.918;2023-11-21T14:39:08;10.9;100.0
22674;DHT22;11504;43.334;21.918;2023-11-21T14:43:45;10.8;100.0
22674;DHT22;11504;43.334;21.918;2023-11-21T14:48:22;10.8;100.0
22674;DHT22;11504;43.334;21.918;2023-11-21T14:52:58;10.8;100.0
22674;DHT22;11504;43.334;21.918;2023-11-21T14:57:34;10.7;100.0
22674;DHT22;11504;43.334;21.918;2023-11-21T15:02:11;10.7;100.0
22674;DHT22;11504;43.334;21.918;2023-11-21T15:06:47;10.6;100.0
22674;DHT22;11504;43.334;21.918;2023-11-21T15:11:23;10.6;100.0
22674;DHT22;11504;43.334;21.918;2023-11-21T15:15:59;10.6;100.0
22674;DHT22;11504;43.334;21.918;2023-11-21T15:20:35;10.6;100.0
22674;DHT22;11504;43.334;21.918;2023-11-21T15:25:12;10.6;100.0
22674;DHT22;11504;43.334;21.918;2023-11-21T15:29:48;10.6;100.0
22674;DHT22;11504;43.334;21.918;2023-11-21T15:34:25;10.7;100.0
22674;DHT22;11504;43.334;21.918;2023-11-21T15:39:02;10.7;100.0
22674;DHT22;11504;43.334;21.918;2023-11-21T15:43:39;10.8;100.0
22674;DHT22;11504;43.334;21.918;2023-11-21T15:48:16;10.8;100.0
22674;DHT22;11504;43.334;21.918;2023-11-21T15:52:52;10.8;100.0
22674;DHT22;11504;43.334;21.918;2023-11-21T15:57:28;10.8;100.0
22674;DHT22;11504;43.334;21.918;2023-11-21T16:02:05;10.8;100.0
22674;DHT22;11504;43.334;21.918;2023-11-21T16:06:41;10.8;100.0
22674;DHT22;11504;43.334;21.918;2023-11-21T16:11:17;10.8;100.0
22674;DHT22;11504;43.334;21.918;2023-11-21T16:15:54;10.8;100.0
22674;DHT22;11504;43.334;21.918;2023-11-21T16:20:30;10.8;100.0
22674;DHT22;11504;43.334;21.918;2023-11-21T16:25:07;10.8;100.0
22674;DHT22;11504;43.334;21.918;2023-11-21T16:29:44;10.8;100.0
22674;DHT22;11504;43.334;21.918;2023-11-21T16:34:21;10.8;100.0
22674;DHT22;11504;43.334;21.918;2023-11-21T16:38:57;10.8;100.0
22674;DHT22;11504;43.334;21.918;2023-11-21T16:43:33;10.8;100.0
22674;DHT22;11504;43.334;21.918;2023-11-21T16:48:09;10.7;100.0
22674;DHT22;11504;43.334;21.918;2023-11-21T16:52:46;10.7;100.0
22674;DHT22;11504;43.334;21.918;2023-11-21T16:57:22;10.6;100.0
22674;DHT22;11504;43.334;21.918;2023-11-21T17:01:58;10.6;100.0
22674;DHT22;11504;43.334;21.918;2023-11-21T17:06:34;10.6;100.0
22674;DHT22;11504;43.334;21.918;2023-11-21T17:11:11;10.6;100.0
22674;DHT22;11504;43.334;21.918;2023-11-21T17:15:47;10.7;100.0
22674;DHT22;11504;43.334;21.918;2023-11-21T17:20:23;10.7;100.0
22674;DHT22;11504;43.334;21.918;2023-11-21T17:25:00;10.8;100.0
22674;DHT22;11504;43.334;21.918;2023-11-21T17:29:36;10.8;100.0
22674;DHT22;11504;43.334;21.918;2023-11-21T17:34:13;10.8;100.0
22674;DHT22;11504;43.334;21.918;2023-11-21T17:38:49;10.8;100.0
22674;DHT22;11504;43.334;21.918;2023-11-21T17:43:26;10.8;100.0
22674;DHT22;11504;43.334;21.918;2023-11-21T17:48:03;10.8;100.0
22674;DHT22;11504;43.334;21.918;2023-11-21T17:52:40;10.8;100.0
22674;DHT22;11504;43.334;21.918;2023-11-21T17:57:17;10.9;100.0
22674;DHT22;11504;43.334;21.918;2023-11-21T18:01:55;10.9;100.0
22674;DHT22;11504;43.334;21.918;2023-11-21T18:06:31;10.9;100.0
22674;DHT22;11504;43.334;21.918;2023-11-21T18:11:08;10.9;100.0
22674;DHT22;11504;43.334;21.918;2023-11-21T18:15:44;10.9;100.0
22674;DHT22;11504;43.334;21.918;2023-11-21T18:20:21;10.9;100.0
22674;DHT22;11504;43.334;21.918;2023-11-21T18:24:58;10.9;100.0
22674;DHT22;11504;43.334;21.918;2023-11-21T18:29:35;10.9;100.0
22674;DHT22;11504;43.334;21.918;2023-11-21T18:34:11;10.9;100.0
22674;DHT22;11504;43.334;21.918;2023-11-21T18:38:48;10.9;100.0
22674;DHT22;11504;43.334;21.918;2023-11-21T18:43:24;10.9;100.0
22674;DHT22;11504;43.334;21.918;2023-11-21T18:48:00;10.9;100.0
22674;DHT22;11504;43.334;21.918;2023-11-21T18:52:37;10.9;100.0
22674;DHT22;11504;43.334;21.918;2023-11-21T18:57:14;10.9;100.0
22674;DHT22;11504;43.334;21.918;2023-11-21T19:01:50;10.9;100.0
22674;DHT22;11504;43.334;21.918;2023-11-21T19:06:27;10.9;100.0
22674;DHT22;11504;43.334;21.918;2023-11-21T19:11:03;10.9;100.0
22674;DHT22;11504;43.334;21.918;2023-11-21T19:15:41;10.9;100.0
22674;DHT22;11504;43.334;21.918;2023-11-21T19:20:17;10.9;100.0
22674;DHT22;11504;43.334;21.918;2023-11-21T19:24:53;10.9;100.0
22674;DHT22;11504;43.334;21.918;2023-11-21T19:29:29;10.9;100.0
22674;DHT22;11504;43.334;21.918;2023-11-21T19:34:06;10.8;100.0
22674;DHT22;11504;43.334;21.918;2023-11-21T19:38:42;10.8;100.0
22674;DHT22;11504;43.334;21.918;2023-11-21T19:43:20;10.8;100.0
22674;DHT22;11504;43.334;21.918;2023-11-21T19:47:56;10.7;100.0
22674;DHT22;11504;43.334;21.918;2023-11-21T19:52:33;10.7;100.0
22674;DHT22;11504;43.334;21.918;2023-11-21T19:57:09;10.6;100.0
22674;DHT22;11504;43.334;21.918;2023-11-21T20:01:46;10.6;100.0
22674;DHT22;11504;43.334;21.918;2023-11-21T20:06:22;10.6;100.0
22674;DHT22;11504;43.334;21.918;2023-11-21T20:10:58;10.6;100.0
22674;DHT22;11504;43.334;21.918;2023-11-21T20:15:35;10.6;100.0
22674;DHT22;11504;43.334;21.918;2023-11-21T20:20:13;10.6;100.0
22674;DHT22;11504;43.334;21.918;2023-11-21T20:24:49;10.7;100.0
22674;DHT22;11504;43.334;21.918;2023-11-21T20:29:25;10.7;100.0
22674;DHT22;11504;43.334;21.918;2023-11-21T20:34:01;10.7;100.0
22674;DHT22;11504;43.334;21.918;2023-11-21T20:38:38;10.7;100.0
22674;DHT22;11504;43.334;21.918;2023-11-21T20:43:14;10.7;100.0
22674;DHT22;11504;43.334;21.918;2023-11-21T20:47:50;10.7;100.0
22674;DHT22;11504;43.334;21.918;2023-11-21T20:52:27;10.7;100.0
22674;DHT22;11504;43.334;21.918;2023-11-21T20:57:04;10.6;100.0
22674;DHT22;11504;43.334;21.918;2023-11-21T21:01:41;10.6;100.0
22674;DHT22;11504;43.334;21.918;2023-11-21T21:06:18;10.6;100.0
22674;DHT22;11504;43.334;21.918;2023-11-21T21:10:54;10.6;100.0
22674;DHT22;11504;43.334;21.918;2023-11-21T21:15:30;10.6;100.0
22674;DHT22;11504;43.334;21.918;2023-11-21T21:20:08;10.6;100.0
22674;DHT22;11504;43.334;21.918;2023-11-21T21:24:46;10.7;100.0
22674;DHT22;11504;43.334;21.918;2023-11-21T21:29:22;10.7;100.0
22674;DHT22;11504;43.334;21.918;2023-11-21T21:33:59;10.7;100.0
22674;DHT22;11504;43.334;21.918;2023-11-21T21:38:35;10.7;100.0
22674;DHT22;11504;43.334;21.918;2023-11-21T21:43:11;10.7;100.0
22674;DHT22;11504;43.334;21.918;2023-11-21T21:47:48;10.7;100.0
22674;DHT22;11504;43.334;21.918;2023-11-21T21:52:33;10.7;100.0
22674;DHT22;11504;43.334;21.918;2023-11-21T21:57:11;10.7;100.0
22674;DHT22;11504;43.334;21.918;2023-11-21T22:01:48;10.7;100.0
22674;DHT22;11504;43.334;21.918;2023-11-21T22:06:24;10.7;100.0
22674;DHT22;11504;43.334;21.918;2023-11-21T22:11:00;10.7;100.0
22674;DHT22;11504;43.334;21.918;2023-11-21T22:15:36;10.7;100.0
22674;DHT22;11504;43.334;21.918;2023-11-21T22:20:14;10.7;100.0
22674;DHT22;11504;43.334;21.918;2023-11-21T22:24:50;10.7;100.0
22674;DHT22;11504;43.334;21.918;2023-11-21T22:29:26;10.7;100.0
22674;DHT22;11504;43.334;21.918;2023-11-21T22:34:03;10.6;100.0
22674;DHT22;11504;43.334;21.918;2023-11-21T22:38:40;10.6;100.0
22674;DHT22;11504;43.334;21.918;2023-11-21T22:43:18;10.6;100.0
22674;DHT22;11504;43.334;21.918;2023-11-21T22:47:54;10.6;100.0
22674;DHT22;11504;43.334;21.918;2023-11-21T22:52:31;10.6;100.0
22674;DHT22;11504;43.334;21.918;2023-11-21T22:57:09;10.6;100.0
22674;DHT22;11504;43.334;21.918;2023-11-21T23:01:46;10.6;100.0
22674;DHT22;11504;43.334;21.918;2023-11-21T23:06:23;10.6;100.0
22674;DHT22;11504;43.334;21.918;2023-11-21T23:10:59;10.6;100.0
22674;DHT22;11504;43.334;21.918;2023-11-21T23:15:35;10.6;100.0
22674;DHT22;11504;43.334;21.918;2023-11-21T23:20:11;10.6;100.0
22674;DHT22;11504;43.334;21.918;2023-11-21T23:24:48;10.6;100.0
22674;DHT22;11504;43.334;21.918;2023-11-21T23:29:24;10.6;100.0
22674;DHT22;11504;43.334;21.918;2023-11-21T23:34:01;10.7;100.0
22674;DHT22;11504;43.334;21.918;2023-11-21T23:38:39;10.7;100.0
22674;DHT22;11504;43.334;21.918;2023-11-21T23:43:15;10.7;100.0
22674;DHT22;11504;43.334;21.918;2023-11-21T23:47:51;10.8;100.0
22674;DHT22;11504;43.334;21.918;2023-11-21T23:52:30;10.8;100.0
22674;DHT22;11504;43.334;21.918;2023-11-21T23:57:06;10.9;100.0
